Latest Weather Observations for Scotts Peak

IDT60801

Issued at 8:31 pm EST Wednesday 2 September 2015 (issued every 30 minutes, with the page automatically refreshed every 10 minutes)

About weather observations | Map of weather stations | Latest weather observations for TAS | Other Formats
Station Details ID: 097083 Name: SCOTTS PEAK DAM Lat: -43.04 Lon: 146.27 Height: 408.0 m
Data from the previous 72 hours. | See also: Recent months at Scotts Peak
Date/Time
EST
Temp
°C
App
Temp
°C
Dew
Point
Rel
Hum
%
Delta-T
°C
Wind Press
QNH
hPa
Press
MSL
hPa
Rain
since 9 am
mm
Dir
 
Spd
km/h
Gust
km/h
Spd
kts
Gust
kts
02/08:30pm 7.1 3.7 6.0 93 0.5 NNW 13 17 7 9 - - 0.2
02/08:00pm 6.9 3.1 6.0 94 0.4 NNW 15 20 8 11 - - 0.2
02/07:30pm 6.8 4.5 5.9 94 0.4 NW 7 11 4 6 - - 0.2
02/07:00pm 6.8 4.7 5.9 94 0.4 NW 6 7 3 4 - - 0.2
02/06:30pm 6.9 5.9 5.8 93 0.5 CALM 0 0 0 0 - - 0.2
02/06:00pm 7.1 6.2 5.9 92 0.6 CALM 0 6 0 3 - - 0.2
02/05:30pm 7.3 4.7 6.1 92 0.6 NNW 9 11 5 6 - - 0.2
02/05:00pm 7.8 5.3 6.7 93 0.5 NNW 9 11 5 6 - - 0.2
02/04:30pm 7.8 4.9 6.6 92 0.6 NW 11 15 6 8 - - 0.2
02/04:00pm 7.5 4.8 5.8 89 0.8 NW 9 13 5 7 - - 0.2
02/03:30pm 8.1 5.5 5.9 86 1.0 W 9 11 5 6 - - 0.2
02/03:00pm 8.4 5.4 6.2 86 1.0 NW 11 15 6 8 - - 0.2
02/02:30pm 8.6 5.5 7.1 90 0.7 NNW 13 15 7 8 - - 0.2
02/02:00pm 8.4 5.0 5.9 84 1.2 N 13 19 7 10 - - 0.0
02/01:30pm 8.8 4.1 5.2 78 1.7 N 19 24 10 13 - - 0.0
02/01:00pm 10.8 6.2 3.6 61 3.2 N 17 22 9 12 - - 0.0
02/12:30pm 12.3 8.2 6.1 66 3.0 NNW 17 20 9 11 - - 0.0
02/12:00pm 11.2 5.6 3.5 59 3.5 NNW 22 26 12 14 - - 0.0
02/11:30am 11.8 6.6 5.4 65 3.0 N 22 28 12 15 - - 0.0
02/11:00am 10.5 6.3 3.8 63 3.0 NW 15 24 8 13 - - 0.0
02/10:30am 8.6 5.6 4.0 73 2.1 NW 9 15 5 8 - - 0.0
02/10:00am 8.0 3.9 6.0 87 0.9 NNW 17 20 9 11 - - 0.0
02/09:30am 6.6 3.3 6.5 99 0.0 NNW 13 17 7 9 - - 0.0
02/09:00am 5.1 2.6 5.0 99 0.0 NNE 7 11 4 6 - - 0.2
02/08:30am 3.7 0.6 3.6 99 0.0 ESE 9 11 5 6 - - 0.2
02/08:00am 3.9 0.8 3.8 99 0.0 E 9 11 5 6 - - 0.2
02/07:30am 3.6 0.9 3.5 99 0.0 ENE 7 9 4 5 - - 0.2
02/07:00am 3.3 0.5 3.2 99 0.0 ENE 7 9 4 5 - - 0.2
02/06:30am 3.2 0.6 3.1 99 0.0 ENE 6 7 3 4 - - 0.2
02/06:00am 2.9 0.2 2.8 99 0.0 N 6 9 3 5 - - 0.2
02/05:30am 3.0 0.3 2.9 99 0.0 NNW 6 7 3 4 - - 0.2
02/05:00am 3.4 0.6 3.3 99 0.0 NNW 7 9 4 5 - - 0.2
02/04:30am 3.6 1.1 3.5 99 0.0 ESE 6 7 3 4 - - 0.2
02/04:00am 3.4 0.6 3.3 99 0.0 E 7 9 4 5 - - 0.2
02/03:30am 3.6 2.2 3.5 99 0.0 CALM 0 0 0 0 - - 0.2
02/03:00am 3.6 1.8 3.3 98 0.1 E 2 7 1 4 - - 0.2
02/02:30am 4.4 3.1 4.1 98 0.1 CALM 0 0 0 0 - - 0.2
02/02:00am 4.5 2.1 4.2 98 0.1 NNW 6 9 3 5 - - 0.2
02/01:30am 4.7 2.4 4.6 99 0.0 NNW 6 7 3 4 - - 0.2
02/01:00am 4.7 2.4 4.6 99 0.0 NNW 6 7 3 4 - - 0.2
02/12:30am 4.5 2.5 4.4 99 0.0 N 4 9 2 5 - - 0.2
02/12:00am 4.4 2.0 4.3 99 0.0 N 6 7 3 4 - - 0.2
 
Date/Time
EST
Temp
°C
App
Temp
°C
Dew
Point
Rel
Hum
%
Delta-T
°C
Wind Press
QNH
hPa
Press
MSL
hPa
Rain
since 9 am
mm
Dir
 
Spd
km/h
Gust
km/h
Spd
kts
Gust
kts
01/11:30pm 4.3 2.2 4.0 98 0.1 N 4 7 2 4 - - 0.2
01/11:00pm 4.5 1.9 4.2 98 0.1 N 7 11 4 6 - - 0.2
01/10:30pm 4.6 2.2 4.3 98 0.1 N 6 9 3 5 - - 0.2
01/10:00pm 4.6 3.3 4.0 96 0.3 CALM 0 0 0 0 - - 0.2
01/09:30pm 4.5 1.8 3.9 96 0.3 SE 7 9 4 5 - - 0.2
01/09:00pm 4.9 2.4 3.9 93 0.4 S 6 7 3 4 - - 0.2
01/08:30pm 5.5 2.6 4.5 93 0.4 SSW 9 11 5 6 - - 0.2
01/08:00pm 5.3 2.9 4.3 93 0.4 E 6 9 3 5 - - 0.2
01/07:30pm 6.0 2.3 4.5 90 0.7 SSW 13 20 7 11 - - 0.2
01/07:00pm 6.1 -0.1 4.3 88 0.8 SW 26 33 14 18 - - 0.2
01/06:30pm 6.3 0.9 4.3 87 0.9 WSW 22 28 12 15 - - 0.2
01/06:00pm 6.5 1.4 4.2 85 1.0 WSW 20 28 11 15 - - 0.2
01/05:30pm 7.1 0.9 4.2 82 1.3 WSW 26 32 14 17 - - 0.2
01/05:00pm 8.6 2.9 4.8 77 1.7 WSW 24 33 13 18 - - 0.2
01/04:30pm 8.9 2.9 5.1 77 1.7 SW 26 33 14 18 - - 0.2
01/04:00pm 10.8 6.0 4.7 66 2.8 WSW 19 24 10 13 - - 0.2
01/03:30pm 13.3 9.1 3.7 52 4.4 NW 15 19 8 10 - - 0.2
01/03:00pm 14.5 10.6 5.3 54 4.4 NNW 15 20 8 11 - - 0.2
01/02:30pm 14.5 10.7 5.6 55 4.3 NNW 15 19 8 10 - - 0.2
01/02:00pm 13.0 9.3 4.2 55 4.1 NW 13 15 7 8 - - 0.2
01/01:30pm 13.0 9.0 4.9 58 3.8 NW 15 17 8 9 - - 0.2
01/01:00pm 13.6 10.1 7.2 65 3.2 NW 15 19 8 10 - - 0.2
01/12:30pm 11.9 8.9 5.8 66 2.9 NW 11 13 6 7 - - 0.0
01/12:00pm 11.1 7.6 5.4 68 2.7 NW 13 17 7 9 - - 0.0
01/11:30am 9.1 5.7 5.8 80 1.5 NW 13 15 7 8 - - 0.0
01/11:00am 8.1 4.6 5.4 83 1.2 NW 13 15 7 8 - - 0.0
01/10:30am 6.3 3.6 5.4 94 0.4 NW 9 13 5 7 - - 0.0
01/10:00am 5.8 3.5 5.7 99 0.0 NW 7 9 4 5 - - 0.0
01/09:30am 4.9 3.7 4.8 99 0.0 CALM 0 9 0 5 - - 0.0
01/09:00am 4.3 2.6 4.2 99 0.0 SE 2 6 1 3 - - 0.2
01/08:30am 3.1 -0.1 3.0 99 0.0 SSE 9 11 5 6 - - 0.2
01/08:00am 3.2 0.6 3.1 99 0.0 SE 6 9 3 5 - - 0.2
01/07:30am 2.7 -0.2 2.6 99 0.0 SSE 7 9 4 5 - - 0.2
01/07:00am 2.5 -0.4 2.4 99 0.0 SE 7 7 4 4 - - 0.2
01/06:30am 2.5 0.9 2.4 99 0.0 CALM 0 0 0 0 - - 0.2
01/06:00am 3.2 1.7 3.1 99 0.0 CALM 0 0 0 0 - - 0.2
01/05:30am 3.2 1.7 3.1 99 0.0 CALM 0 0 0 0 - - 0.2
01/05:00am 3.4 1.2 3.3 99 0.0 E 4 6 2 3 - - 0.2
01/04:30am 3.7 1.2 3.6 99 0.0 E 6 6 3 3 - - 0.2
01/04:00am 4.0 1.3 3.9 99 0.0 E 7 9 4 5 - - 0.2
01/03:30am 4.1 1.1 4.0 99 0.0 ESE 9 11 5 6 - - 0.2
01/03:00am 4.3 1.3 4.2 99 0.0 SE 9 11 5 6 - - 0.2
01/02:30am 4.6 1.7 4.5 99 0.0 SSE 9 13 5 7 - - 0.2
01/02:00am 4.5 1.6 4.4 99 0.0 SE 9 13 5 7 - - 0.2
01/01:30am 4.3 1.3 4.2 99 0.0 SSE 9 13 5 7 - - 0.2
01/01:00am 4.3 0.9 4.2 99 0.0 ESE 11 15 6 8 - - 0.2
01/12:30am 4.4 1.4 4.3 99 0.0 SE 9 13 5 7 - - 0.2
01/12:00am 4.6 2.1 4.5 99 0.0 SE 7 11 4 6 - - 0.2
 
Date/Time
EST
Temp
°C
App
Temp
°C
Dew
Point
Rel
Hum
%
Delta-T
°C
Wind Press
QNH
hPa
Press
MSL
hPa
Rain
since 9 am
mm
Dir
 
Spd
km/h
Gust
km/h
Spd
kts
Gust
kts
31/11:30pm 4.7 1.8 4.6 99 0.0 SE 9 13 5 7 - - 0.2
31/11:00pm 4.9 2.0 4.8 99 0.0 SE 9 11 5 6 - - 0.2
31/10:30pm 4.8 1.5 4.7 99 0.0 SE 11 15 6 8 - - 0.2
31/10:00pm 4.9 1.3 4.8 99 0.0 SE 13 15 7 8 - - 0.2
31/09:30pm 4.8 1.9 4.7 99 0.0 SE 9 11 5 6 - - 0.2
31/09:00pm 4.7 1.0 4.6 99 0.0 SE 13 17 7 9 - - 0.2
31/08:30pm 4.8 0.3 4.2 96 0.3 SE 17 17 9 9 - - 0.2
31/08:00pm 5.3 0.8 4.4 94 0.4 ESE 17 22 9 12 - - 0.2
31/07:30pm 5.8 1.7 4.4 91 0.6 SE 15 17 8 9 - - 0.2
31/07:00pm 6.0 2.6 4.2 88 0.8 SE 11 17 6 9 - - 0.2
31/06:30pm 6.4 3.4 4.1 85 1.0 SE 9 13 5 7 - - 0.2
31/06:00pm 7.0 4.4 3.4 78 1.6 SE 6 9 3 5 - - 0.2
31/05:30pm 8.0 5.2 2.9 70 2.2 ESE 7 9 4 5 - - 0.2
31/05:00pm 8.6 7.1 3.2 69 2.4 CALM 0 0 0 0 - - 0.2
31/04:30pm 9.2 6.2 4.0 70 2.3 NW 9 11 5 6 - - 0.2
31/04:00pm 10.2 7.5 5.8 74 2.1 NW 9 11 5 6 - - 0.2
31/03:30pm 11.1 6.3 4.6 64 3.0 NNW 19 22 10 12 - - 0.2
31/03:00pm 8.8 5.8 1.7 61 3.0 ESE 7 15 4 8 - - 0.2
31/02:30pm 8.6 4.7 3.2 69 2.4 ESE 13 20 7 11 - - 0.2
31/02:00pm 8.9 5.1 3.7 70 2.3 ESE 13 20 7 11 - - 0.2
31/01:30pm 8.8 5.5 2.6 65 2.7 E 9 17 5 9 - - 0.2
31/01:00pm 9.1 5.1 2.9 65 2.7 E 13 20 7 11 - - 0.2
31/12:30pm 9.7 6.6 3.4 65 2.8 E 9 20 5 11 - - 0.2
31/12:00pm 7.9 4.8 3.8 75 1.8 SSE 9 15 5 8 - - 0.0
31/11:30am 9.0 6.1 4.8 75 1.9 NNE 9 15 5 8 - - 0.0
31/11:00am 7.0 4.4 3.3 77 1.6 WNW 6 11 3 6 - - 0.0
31/10:30am 8.1 5.4 3.8 74 1.9 E 7 15 4 8 - - 0.0
31/10:00am 7.6 4.4 5.1 84 1.1 ESE 11 20 6 11 - - 0.0
31/09:30am 6.1 2.2 5.5 96 0.3 ESE 15 19 8 10 - - 0.0
31/09:00am 5.2 1.6 5.1 99 0.0 ESE 13 17 7 9 - - 0.4
31/08:30am 3.9 1.2 3.8 99 0.0 SSE 7 11 4 6 - - 0.4
31/08:00am 3.2 0.4 3.1 99 0.0 SE 7 11 4 6 - - 0.4
31/07:30am 2.8 -0.1 2.7 99 0.0 SE 7 11 4 6 - - 0.4
31/07:00am 2.5 0.5 2.4 99 0.0 SSE 2 7 1 4 - - 0.4
31/06:30am 2.3 0.3 2.2 99 0.0 S 2 6 1 3 - - 0.4
31/06:00am 1.9 -1.1 1.8 99 0.0 N 7 9 4 5 - - 0.4
31/05:30am 2.4 0.8 2.3 99 0.0 CALM 0 0 0 0 - - 0.4
31/05:00am 2.5 0.9 2.4 99 0.0 CALM 0 0 0 0 - - 0.4
31/04:30am 2.6 1.0 2.5 99 0.0 CALM 0 0 0 0 - - 0.4
31/04:00am 2.5 0.9 2.4 99 0.0 CALM 0 0 0 0 - - 0.4
31/03:30am 2.3 0.7 2.2 99 0.0 CALM 0 0 0 0 - - 0.4
31/03:00am 2.1 0.0 2.0 99 0.0 SSE 2 7 1 4 - - 0.4
31/02:30am 2.3 -0.5 2.2 99 0.0 SSE 6 7 3 4 - - 0.4
31/02:00am 2.4 -1.3 2.3 99 0.0 SE 11 13 6 7 - - 0.4
31/01:30am 2.3 -0.5 2.2 99 0.0 SE 6 9 3 5 - - 0.4
31/01:00am 2.4 -0.4 2.3 99 0.0 SE 6 11 3 6 - - 0.4
31/12:30am 2.7 -1.3 2.6 99 0.0 SE 13 17 7 9 - - 0.4
31/12:00am 2.6 -0.7 2.5 99 0.0 SE 9 11 5 6 - - 0.4
 
Date/Time
EST
Temp
°C
App
Temp
°C
Dew
Point
Rel
Hum
%
Delta-T
°C
Wind Press
QNH
hPa
Press
MSL
hPa
Rain
since 9 am
mm
Dir
 
Spd
km/h
Gust
km/h
Spd
kts
Gust
kts
30/11:30pm 3.0 -0.2 2.9 99 0.0 SSE 9 11 5 6 - - 0.4
30/11:00pm 3.1 0.2 2.8 98 0.1 SSE 7 9 4 5 - - 0.4
30/10:30pm 3.4 0.8 3.1 98 0.1 SE 6 7 3 4 - - 0.4
30/10:00pm 3.5 0.7 2.9 96 0.2 SSE 7 9 4 5 - - 0.4
30/09:30pm 3.4 0.1 2.7 95 0.3 ESE 9 17 5 9 - - 0.4
30/09:00pm 3.8 0.2 3.1 95 0.3 ESE 11 15 6 8 - - 0.4

Other Formats:

Comma delimited format used in spreadsheet applications
http://www.bom.gov.au/fwo/IDT60801/IDT60801.95958.axf

JavaScript Object Notation format (JSON) in row-major order
http://www.bom.gov.au/fwo/IDT60801/IDT60801.95958.json